Strona główna
METAR-TAF:

METAR-TAF

Lotnisko :

Port lotniczy Birmingham

Birmingham, Anglia

Szerokość geograficzna: 52-27N, Długość geograficzna: 001-44W, wysokość: 99 m

Aktualna obserwacja pogody

Raport powstał 23 minut temu, godzina 03:50 UTC
Wiatr 3 kt od wschód
Temperatura 10°C
Wilgotność 93%
Ciśnienie 1036 hPa
Widzialność 10 km lub więcej

METAR: EGBB 280350Z AUTO 08003KT 9999 NCD 10/09 Q1036

czas: 05:13 (04:13 UTC)

Prognoza

Raport powstał 5 godziny i 11 minut temu, godzina 23:02 UTC
Prognoza ważna od 28 godzina 00 UTC do 28 godzina 24 UTC
Wiatr 4 kt od wschodnio-północny wschód
Widzialność 10 km lub więcej
Mało chmury na wysokości 4000 ft

TAF: EGBB 272302Z 2800/2824 06004KT 9999 FEW040

Obserwacja i prognoza pogody dla ponad 4000 lotnisk (raport METAR i TAF).

Dostępne stacje oznaczono żółtymi i czerwonymi punktami na mapie.

Najedź kursorem aby zobaczyć nazwę stacji.

Kliknij aby zobaczyć obserwacje i prognozy pogody.

Aby zmienić mapę: kliknij na zielony przycisk z czarnym krzyżykiem, aby powiększyć; na zielony przycisk z myślnikiem, aby pomniejszyć; na zielone strzałki, aby przejść do map sąsiednich.


METAR-TAF: